Billy Bishop Toronto City Centre Airport
CYTZ : now visible

Airfield :











YOU CAN JOIN US ON...

 
LOGIN :

Register | Disclaimer

   EN    FR    IT 

 









Legend :    VFR   Marginal VFR   IFR   Intensive IFR   Very Intensive IFR
Visi :
Ceiling :
>= 8 km
>= 3000ft
5 to 8 km
1000 to 3000 ft
1500m to 5 km
500 to 1000 ft
800 to 1500m
200 to 500 ft
< 800m
< 200 ft
Symbols :   Thunderstorms  Fog  Heavy snow  Heavy precipitations  Wind > 20 kt






- Airport Elevation : 251 ft
- IATA code : YTZ


CYTZ - Billy Bishop Toronto City Centre

CURRENT METAR :
  • 242201Z AUTO 06020KT 9SM -RA OVC070 03/M01 A3010 RMK SLP198

EXPIRED METARs :
  • 242100Z AUTO 06018G24KT 9SM BKN090 OVC110 02/M01 A3012 RMK SLP205
  • 242000Z AUTO 07017G22KT 9SM BKN100 BKN120 02/M01 A3013 RMK SLP208

TAF AMD TAF CYTZ
Valid from the 24 at 22:00 until the 25 at 20:00 UTC


242209Z 2422/2520 06020KT P6SM -RA OVC070
TEMPO 2422/2502 5SM -RA BR OVC030
FM250200 08015KT 2SM RA BR BKN004 OVC010
FM251000 07017KT 1SM -RA -DZ BR OVC003
FM251200 07017KT 2SM -SNRA BR OVC004
BECMG 2512/2514 07017G27KT
BECMG 2516/2518 07015KT RMK FCST BASED ON AUTO OBS. NXT FCST BY 250200Z



MET'MAP, your aeronautical weather chart ! - Copyright ORBIFLY December 2007 - Disclaimer

ORBIFLY MET'MAP TEAM :

Programming & Development : Alexandra Zaïnal
Concept & original design : Baudouin d'Aumeries
Assistance for programming : Marc-Olivier Méhu
Technical & hardware support : Manuel Goepfert

Contact : metmap@orbifly.com




SOURCES & CREDITS :

   NOAA       Earth
Advisory